Time,TemperatureF,DewpointF,PressureIn,WindDirection,WindDirectionDegrees,WindSpeedMPH,WindSpeedGustMPH,Humidity,HourlyPrecipIn,Conditions,Clouds,dailyrainin,SoftwareType,DateUTC
2013-03-12 00:00:00,32.0,15.9,30.23,West,270,0.4,0.4,51,0.00,,,0.00,WUHU216HW,2013-03-12 06:00:00,
2013-03-12 00:05:00,32.0,15.9,30.23,West,270,0.4,0.4,51,0.00,,,0.00,WUHU216HW,2013-03-12 06:05:00,
2013-03-12 00:30:00,31.7,17.3,30.24,SW,225,2.5,2.5,55,0.00,,,0.00,WUHU216HW,2013-03-12 06:30:00,
2013-03-12 00:35:00,31.7,17.3,30.24,SW,225,2.5,2.5,55,0.00,,,0.00,WUHU216HW,2013-03-12 06:35:00,
2013-03-12 01:00:00,30.8,19.3,30.24,WSW,248,3.4,3.4,62,0.00,,,0.00,WUHU216HW,2013-03-12 07:00:00,
2013-03-12 01:05:00,30.8,19.3,30.24,WSW,248,3.4,3.4,62,0.00,,,0.00,WUHU216HW,2013-03-12 07:05:00,
2013-03-12 01:30:00,29.9,19.8,30.24,WSW,248,3.8,3.8,66,0.00,,,0.00,WUHU216HW,2013-03-12 07:30:00,
2013-03-12 01:35:00,29.9,19.8,30.24,WSW,248,3.8,3.8,66,0.00,,,0.00,WUHU216HW,2013-03-12 07:35:00,
2013-03-12 02:00:00,29.3,20.8,30.24,WSW,248,3.4,3.4,70,0.00,,,0.00,WUHU216HW,2013-03-12 08:00:00,
2013-03-12 02:05:00,29.3,20.8,30.24,WSW,248,3.4,3.4,70,0.00,,,0.00,WUHU216HW,2013-03-12 08:05:00,
2013-03-12 02:30:00,29.2,21.0,30.24,WSW,248,1.6,1.6,71,0.00,,,0.00,WUHU216HW,2013-03-12 08:30:00,
2013-03-12 02:35:00,29.2,21.0,30.24,WSW,248,1.6,1.6,71,0.00,,,0.00,WUHU216HW,2013-03-12 08:35:00,
2013-03-12 03:00:00,28.4,20.3,30.24,SSW,203,2.0,2.0,71,0.00,,,0.00,WUHU216HW,2013-03-12 09:00:00,
2013-03-12 03:05:00,28.4,20.3,30.24,SSW,203,2.0,2.0,71,0.00,,,0.00,WUHU216HW,2013-03-12 09:05:00,
2013-03-12 03:30:00,28.3,20.4,30.24,SSW,203,2.2,2.2,72,0.00,,,0.00,WUHU216HW,2013-03-12 09:30:00,
2013-03-12 03:35:00,28.3,20.4,30.24,SSW,203,2.2,2.2,72,0.00,,,0.00,WUHU216HW,2013-03-12 09:35:00,
2013-03-12 04:00:00,27.7,20.2,30.23,West,270,1.1,1.1,73,0.00,,,0.00,WUHU216HW,2013-03-12 10:00:00,
2013-03-12 04:05:00,27.7,20.2,30.23,West,270,1.1,1.1,73,0.00,,,0.00,WUHU216HW,2013-03-12 10:05:00,
2013-03-12 04:30:00,27.4,19.5,30.22,SSE,158,2.0,2.0,72,0.00,,,0.00,WUHU216HW,2013-03-12 10:30:00,
2013-03-12 04:35:00,27.4,19.5,30.22,SSE,158,2.0,2.0,72,0.00,,,0.00,WUHU216HW,2013-03-12 10:35:00,
2013-03-12 05:00:00,27.0,19.2,30.22,South,180,0.2,0.2,72,0.00,,,0.00,WUHU216HW,2013-03-12 11:00:00,
2013-03-12 05:05:00,27.0,19.2,30.22,South,180,0.2,0.2,72,0.00,,,0.00,WUHU216HW,2013-03-12 11:05:00,
2013-03-12 05:30:00,26.3,18.5,30.22,WSW,248,1.1,1.1,72,0.00,,,0.00,WUHU216HW,2013-03-12 11:30:00,
2013-03-12 05:35:00,26.3,18.5,30.22,WSW,248,1.1,1.1,72,0.00,,,0.00,WUHU216HW,2013-03-12 11:35:00,
2013-03-12 06:00:00,25.7,17.9,30.22,SSE,158,1.1,1.1,72,0.00,,,0.00,WUHU216HW,2013-03-12 12:00:00,
2013-03-12 06:05:00,25.7,17.9,30.22,SSE,158,1.1,1.1,72,0.00,,,0.00,WUHU216HW,2013-03-12 12:05:00,
2013-03-12 06:30:00,25.0,17.6,30.23,SW,225,1.6,1.6,73,0.00,,,0.00,WUHU216HW,2013-03-12 12:30:00,
2013-03-12 06:35:00,25.0,17.6,30.23,SW,225,1.6,1.6,73,0.00,,,0.00,WUHU216HW,2013-03-12 12:35:00,
2013-03-12 07:00:00,24.8,17.6,30.22,SW,225,0.9,0.9,74,0.00,,,0.00,WUHU216HW,2013-03-12 13:00:00,
2013-03-12 07:04:00,24.8,17.6,30.22,SW,225,0.9,0.9,74,0.00,,,0.00,WUHU216HW,2013-03-12 13:04:00,
2013-03-12 07:30:00,24.1,16.7,30.21,SW,225,0.0,0.0,73,0.00,,,0.00,WUHU216HW,2013-03-12 13:30:00,
2013-03-12 07:35:00,24.1,16.7,30.21,SW,225,0.0,0.0,73,0.00,,,0.00,WUHU216HW,2013-03-12 13:35:00,
2013-03-12 08:00:00,24.1,17.0,30.21,NNE,23,0.0,0.0,74,0.00,,,0.00,WUHU216HW,2013-03-12 14:00:00,
2013-03-12 08:05:00,24.1,17.0,30.21,NNE,23,0.0,0.0,74,0.00,,,0.00,WUHU216HW,2013-03-12 14:05:00,
2013-03-12 08:30:00,24.8,17.6,30.21,SE,135,1.1,1.1,74,0.00,,,0.00,WUHU216HW,2013-03-12 14:30:00,
2013-03-12 08:35:00,24.8,17.6,30.21,SE,135,1.1,1.1,74,0.00,,,0.00,WUHU216HW,2013-03-12 14:35:00,
2013-03-12 09:00:00,25.9,18.1,30.20,SE,135,1.3,1.3,72,0.00,,,0.00,WUHU216HW,2013-03-12 15:00:00,
2013-03-12 09:05:00,25.9,18.1,30.20,SE,135,1.3,1.3,72,0.00,,,0.00,WUHU216HW,2013-03-12 15:05:00,
2013-03-12 09:30:00,26.8,19.0,30.20,SE,135,2.0,2.0,72,0.00,,,0.00,WUHU216HW,2013-03-12 15:30:00,
2013-03-12 09:35:00,26.8,19.0,30.20,SE,135,2.0,2.0,72,0.00,,,0.00,WUHU216HW,2013-03-12 15:35:00,
2013-03-12 10:00:00,30.4,21.8,30.20,WSW,248,1.1,1.1,70,0.00,,,0.00,WUHU216HW,2013-03-12 16:00:00,
2013-03-12 10:04:00,30.4,21.8,30.20,WSW,248,1.1,1.1,70,0.00,,,0.00,WUHU216HW,2013-03-12 16:04:00,
2013-03-12 10:30:00,33.5,22.5,30.19,SSW,203,0.2,0.2,64,0.00,,,0.00,WUHU216HW,2013-03-12 16:30:00,
2013-03-12 10:35:00,33.5,22.5,30.19,SSW,203,0.2,0.2,64,0.00,,,0.00,WUHU216HW,2013-03-12 16:35:00,
2013-03-12 11:00:00,37.1,24.1,30.19,ENE,68,0.7,0.7,59,0.00,,,0.00,WUHU216HW,2013-03-12 17:00:00,
2013-03-12 11:04:00,37.1,24.1,30.19,ENE,68,0.7,0.7,59,0.00,,,0.00,WUHU216HW,2013-03-12 17:04:00,
2013-03-12 11:30:00,38.3,22.6,30.18,SE,135,1.1,1.1,53,0.00,,,0.00,WUHU216HW,2013-03-12 17:30:00,
2013-03-12 11:35:00,38.3,22.6,30.18,SE,135,1.1,1.1,53,0.00,,,0.00,WUHU216HW,2013-03-12 17:35:00,
2013-03-12 12:00:00,41.2,23.4,30.17,SW,225,2.9,2.9,49,0.00,,,0.00,WUHU216HW,2013-03-12 18:00:00,
2013-03-12 12:04:00,41.2,23.4,30.17,SW,225,2.9,2.9,49,0.00,,,0.00,WUHU216HW,2013-03-12 18:04:00,
2013-03-12 12:30:00,42.8,23.9,30.16,SW,225,3.4,3.4,47,0.00,,,0.00,WUHU216HW,2013-03-12 18:30:00,
2013-03-12 12:35:00,42.8,23.9,30.16,SW,225,3.4,3.4,47,0.00,,,0.00,WUHU216HW,2013-03-12 18:35:00,
2013-03-12 13:00:00,44.6,23.4,30.15,West,270,2.5,2.5,43,0.00,,,0.00,WUHU216HW,2013-03-12 19:00:00,
2013-03-12 13:05:00,44.6,23.4,30.15,West,270,2.5,2.5,43,0.00,,,0.00,WUHU216HW,2013-03-12 19:05:00,
2013-03-12 13:30:00,45.2,23.9,30.13,SE,135,1.1,1.1,43,0.00,,,0.00,WUHU216HW,2013-03-12 19:30:00,
2013-03-12 13:35:00,45.2,23.9,30.13,SE,135,1.1,1.1,43,0.00,,,0.00,WUHU216HW,2013-03-12 19:35:00,
2013-03-12 14:00:00,47.5,24.9,30.11,South,180,6.9,6.9,41,0.00,,,0.00,WUHU216HW,2013-03-12 20:00:00,
2013-03-12 14:05:00,47.5,24.9,30.11,South,180,6.9,6.9,41,0.00,,,0.00,WUHU216HW,2013-03-12 20:05:00,
2013-03-12 14:30:00,49.3,25.3,30.09,SSE,158,5.6,5.6,39,0.00,,,0.00,WUHU216HW,2013-03-12 20:30:00,
2013-03-12 14:35:00,49.3,25.3,30.09,SSE,158,5.6,5.6,39,0.00,,,0.00,WUHU216HW,2013-03-12 20:35:00,
2013-03-12 15:00:00,51.7,26.0,30.07,SW,225,3.4,3.4,37,0.00,,,0.00,WUHU216HW,2013-03-12 21:00:00,
2013-03-12 15:05:00,51.7,26.0,30.07,SW,225,3.4,3.4,37,0.00,,,0.00,WUHU216HW,2013-03-12 21:05:00,
2013-03-12 15:10:00,51.7,26.0,30.07,SW,225,3.4,3.4,37,0.00,,,0.00,WUHU216HW,2013-03-12 21:10:00,
2013-03-12 15:30:00,53.1,26.0,30.05,SW,225,2.2,2.2,35,0.00,,,0.00,WUHU216HW,2013-03-12 21:30:00,
2013-03-12 15:35:00,53.1,26.0,30.05,SW,225,2.2,2.2,35,0.00,,,0.00,WUHU216HW,2013-03-12 21:35:00,
2013-03-12 16:00:00,52.6,23.4,30.05,SSW,203,5.4,5.4,32,0.00,,,0.00,WUHU216HW,2013-03-12 22:00:00,
2013-03-12 16:05:00,52.6,23.4,30.05,SSW,203,5.4,5.4,32,0.00,,,0.00,WUHU216HW,2013-03-12 22:05:00,
2013-03-12 16:30:00,51.7,22.6,30.04,SSW,203,3.1,3.1,32,0.00,,,0.00,WUHU216HW,2013-03-12 22:30:00,
2013-03-12 16:35:00,51.7,22.6,30.04,SSW,203,3.1,3.1,32,0.00,,,0.00,WUHU216HW,2013-03-12 22:35:00,
2013-03-12 17:00:00,52.0,23.7,30.03,SSE,158,1.1,1.1,33,0.00,,,0.00,WUHU216HW,2013-03-12 23:00:00,
2013-03-12 17:05:00,52.0,23.7,30.03,SSE,158,1.1,1.1,33,0.00,,,0.00,WUHU216HW,2013-03-12 23:05:00,
2013-03-12 17:30:00,52.7,24.3,30.02,SSE,158,3.6,3.6,33,0.00,,,0.00,WUHU216HW,2013-03-12 23:30:00,
2013-03-12 17:35:00,52.7,24.3,30.02,SSE,158,3.6,3.6,33,0.00,,,0.00,WUHU216HW,2013-03-12 23:35:00,
2013-03-12 18:00:00,52.6,23.4,30.02,South,180,3.6,3.6,32,0.00,,,0.00,WUHU216HW,2013-03-13 00:00:00,
2013-03-12 18:05:00,52.6,23.4,30.02,South,180,3.6,3.6,32,0.00,,,0.00,WUHU216HW,2013-03-13 00:05:00,
2013-03-12 18:30:00,51.1,22.9,30.01,SE,135,0.4,0.4,33,0.00,,,0.00,WUHU216HW,2013-03-13 00:30:00,
2013-03-12 18:35:00,51.1,22.9,30.01,SE,135,0.4,0.4,33,0.00,,,0.00,WUHU216HW,2013-03-13 00:35:00,
2013-03-12 19:00:00,49.0,21.6,30.00,NNE,23,0.2,0.2,34,0.00,,,0.00,WUHU216HW,2013-03-13 01:00:00,
2013-03-12 19:05:00,49.0,21.6,30.00,NNE,23,0.2,0.2,34,0.00,,,0.00,WUHU216HW,2013-03-13 01:05:00,
2013-03-12 19:30:00,46.6,20.9,30.00,NE,45,0.0,0.0,36,0.00,,,0.00,WUHU216HW,2013-03-13 01:30:00,
2013-03-12 19:35:00,46.6,20.9,30.00,NE,45,0.0,0.0,36,0.00,,,0.00,WUHU216HW,2013-03-13 01:35:00,
2013-03-12 20:00:00,44.3,20.2,30.00,NE,45,0.0,0.0,38,0.00,,,0.00,WUHU216HW,2013-03-13 02:00:00,
2013-03-12 20:05:00,44.3,20.2,30.00,NE,45,0.0,0.0,38,0.00,,,0.00,WUHU216HW,2013-03-13 02:05:00,
2013-03-12 20:30:00,42.8,20.2,30.00,WSW,248,0.0,0.0,40,0.00,,,0.00,WUHU216HW,2013-03-13 02:30:00,
2013-03-12 20:35:00,42.8,20.2,30.00,WSW,248,0.0,0.0,40,0.00,,,0.00,WUHU216HW,2013-03-13 02:35:00,
2013-03-12 21:00:00,41.4,20.4,29.99,SSW,203,1.8,1.8,43,0.00,,,0.00,WUHU216HW,2013-03-13 03:00:00,
2013-03-12 21:05:00,41.4,20.4,29.99,SSW,203,1.8,1.8,43,0.00,,,0.00,WUHU216HW,2013-03-13 03:05:00,
2013-03-12 21:30:00,40.9,20.4,29.99,SSE,158,0.0,0.0,44,0.00,,,0.00,WUHU216HW,2013-03-13 03:30:00,
2013-03-12 21:35:00,40.9,20.4,29.99,SSE,158,0.0,0.0,44,0.00,,,0.00,WUHU216HW,2013-03-13 03:35:00,
2013-03-12 22:00:00,38.3,18.7,29.99,SSW,203,0.9,0.9,45,0.00,,,0.00,WUHU216HW,2013-03-13 04:00:00,
2013-03-12 22:05:00,38.3,18.7,29.99,SSW,203,0.9,0.9,45,0.00,,,0.00,WUHU216HW,2013-03-13 04:05:00,
2013-03-12 22:30:00,36.9,18.5,29.98,West,270,0.4,0.4,47,0.00,,,0.00,WUHU216HW,2013-03-13 04:30:00,
2013-03-12 22:35:00,36.9,18.5,29.98,West,270,0.4,0.4,47,0.00,,,0.00,WUHU216HW,2013-03-13 04:35:00,
2013-03-12 23:00:00,36.0,18.7,29.98,West,270,0.0,0.0,49,0.00,,,0.00,WUHU216HW,2013-03-13 05:00:00,
2013-03-12 23:05:00,36.0,18.7,29.98,West,270,0.0,0.0,49,0.00,,,0.00,WUHU216HW,2013-03-13 05:05:00,
2013-03-12 23:30:00,35.8,19.1,29.98,ESE,113,0.7,0.7,50,0.00,,,0.00,WUHU216HW,2013-03-13 05:30:00,
2013-03-12 23:35:00,35.8,19.1,29.98,ESE,113,0.7,0.7,50,0.00,,,0.00,WUHU216HW,2013-03-13 05:35:00,